Time;durP1;ratioP1;P1;durP2;ratioP2;P2;SDS_P1;SDS_P2;PMS_P1;PMS_P2;Temp;Humidity;BMP_temperature;BMP_pressure;BME280_temperature;BME280_humidity;BME280_pressure;Samples;Min_cycle;Max_cycle;Signal;HPM_P1;HPM_P2
2021/12/19 00:09:27;;;;;;;22.42;11.00;;;7.40;99.90;;;;;;4954813;28;20079;-61
2021/12/19 00:11:54;;;;;;;14.57;9.77;;;7.40;99.90;;;;;;4918718;29;20059;-62
2021/12/19 00:14:23;;;;;;;14.10;9.98;;;7.40;99.90;;;;;;4901413;28;20161;-61
2021/12/19 00:16:50;;;;;;;18.42;10.95;;;7.40;99.90;;;;;;4952102;28;20607;-62
2021/12/19 00:19:17;;;;;;;17.80;10.68;;;7.40;99.90;;;;;;4950138;28;20561;-61
2021/12/19 00:21:44;;;;;;;17.27;10.50;;;7.40;99.90;;;;;;4919238;28;20134;-62
2021/12/19 00:24:10;;;;;;;17.35;10.18;;;7.40;99.90;;;;;;4951814;28;20494;-62
2021/12/19 00:26:37;;;;;;;15.63;9.95;;;7.40;99.90;;;;;;4933509;29;20089;-62
2021/12/19 00:29:04;;;;;;;14.15;9.82;;;7.40;99.90;;;;;;4948781;28;20087;-62
2021/12/19 00:31:31;;;;;;;17.23;10.10;;;7.40;99.90;;;;;;4947517;28;20395;-61
2021/12/19 00:33:58;;;;;;;17.17;10.40;;;7.40;99.90;;;;;;4950971;28;20051;-61
2021/12/19 00:36:25;;;;;;;15.90;10.40;;;7.40;99.90;;;;;;4950607;28;20051;-61
2021/12/19 00:38:51;;;;;;;17.40;10.95;;;7.40;99.90;;;;;;4949534;29;20502;-61
2021/12/19 00:41:17;;;;;;;16.40;10.13;;;7.40;99.90;;;;;;4951128;28;20086;-61
2021/12/19 00:43:55;;;;;;;18.42;9.98;;;7.40;99.90;;;;;;4949411;29;20443;-61
2021/12/19 00:46:24;;;;;;;18.80;10.70;;;7.40;99.90;;;;;;4933661;29;20406;-61
2021/12/19 00:48:52;;;;;;;20.42;10.15;;;7.40;99.90;;;;;;4949930;28;20410;-60
2021/12/19 00:51:22;;;;;;;17.40;10.35;;;7.40;99.90;;;;;;4950481;28;20050;-60
2021/12/19 00:53:50;;;;;;;22.33;10.98;;;7.40;99.90;;;;;;4949249;28;20066;-60
2021/12/19 00:56:17;;;;;;;20.63;11.93;;;7.40;99.90;;;;;;4948212;28;20087;-60
2021/12/19 00:58:44;;;;;;;20.98;11.35;;;7.40;99.90;;;;;;4951048;29;20206;-59
2021/12/19 01:01:13;;;;;;;19.67;11.63;;;7.40;99.90;;;;;;4948869;28;20098;-60
2021/12/19 01:03:44;;;;;;;23.35;13.15;;;7.40;99.90;;;;;;4948946;28;20118;-60
2021/12/19 01:06:10;;;;;;;21.83;12.93;;;7.40;99.90;;;;;;4947700;28;20419;-60
2021/12/19 01:08:37;;;;;;;23.75;12.40;;;7.40;99.90;;;;;;4946078;28;20538;-60
2021/12/19 01:11:03;;;;;;;19.52;11.32;;;7.40;99.90;;;;;;4950280;28;20066;-60
2021/12/19 01:13:30;;;;;;;22.45;11.98;;;7.40;99.90;;;;;;4948882;28;20051;-60
2021/12/19 01:15:58;;;;;;;24.55;12.68;;;7.40;99.90;;;;;;4931720;29;20054;-60
2021/12/19 01:18:24;;;;;;;19.40;11.77;;;7.50;99.90;;;;;;4932770;29;20062;-61
2021/12/19 01:20:50;;;;;;;23.85;13.10;;;7.50;99.90;;;;;;4947079;28;20071;-60
2021/12/19 01:23:16;;;;;;;24.15;13.00;;;7.50;99.90;;;;;;4916608;29;20102;-61
2021/12/19 01:25:42;;;;;;;21.35;12.70;;;7.50;99.90;;;;;;4947993;28;20094;-60
2021/12/19 01:28:09;;;;;;;21.85;11.80;;;7.40;99.90;;;;;;4916734;29;20047;-60
2021/12/19 01:30:36;;;;;;;22.90;10.77;;;7.40;99.90;;;;;;4950046;28;20490;-60
2021/12/19 01:33:02;;;;;;;15.50;9.00;;;7.40;99.90;;;;;;4947980;28;20055;-59
2021/12/19 01:35:28;;;;;;;12.55;6.53;;;7.40;99.90;;;;;;4949914;28;20039;-61
2021/12/19 01:37:55;;;;;;;8.20;5.57;;;7.40;99.90;;;;;;4948726;28;20074;-60
2021/12/19 01:40:23;;;;;;;7.97;4.88;;;7.40;99.90;;;;;;4950090;28;20043;-60
2021/12/19 01:42:52;;;;;;;7.03;3.63;;;7.40;99.90;;;;;;4950175;28;20161;-60
2021/12/19 01:45:27;;;;;;;6.35;3.78;;;7.40;99.90;;;;;;4949266;28;20047;-60
2021/12/19 01:47:54;;;;;;;8.02;3.78;;;7.40;99.90;;;;;;4948451;28;20057;-60
2021/12/19 01:50:21;;;;;;;6.55;3.53;;;7.40;99.90;;;;;;4936659;29;20106;-61
2021/12/19 01:52:48;;;;;;;6.95;3.78;;;7.40;99.90;;;;;;4950140;28;20059;-60
2021/12/19 01:55:15;;;;;;;7.35;3.92;;;7.40;99.90;;;;;;4934483;28;20047;-60
2021/12/19 01:57:41;;;;;;;7.65;4.43;;;7.40;99.90;;;;;;4953631;28;20163;-61
2021/12/19 02:00:22;;;;;;;6.57;3.80;;;7.40;99.90;;;;;;4951347;28;20478;-60
2021/12/19 02:02:48;;;;;;;7.07;3.28;;;7.40;99.90;;;;;;4950118;28;20051;-60
2021/12/19 02:05:14;;;;;;;4.63;3.00;;;7.40;99.90;;;;;;4949756;28;20141;-60
2021/12/19 02:07:46;;;;;;;4.50;2.60;;;7.40;99.90;;;;;;4951418;28;20043;-61
2021/12/19 02:10:13;;;;;;;5.95;3.25;;;7.40;99.90;;;;;;4951864;28;20388;-61
2021/12/19 02:12:40;;;;;;;4.47;2.65;;;7.40;99.90;;;;;;4952028;28;20058;-61
2021/12/19 02:15:07;;;;;;;8.65;2.65;;;7.40;99.90;;;;;;4950641;28;20059;-61
2021/12/19 02:17:33;;;;;;;3.88;2.38;;;7.40;99.90;;;;;;4965856;28;20047;-60
2021/12/19 02:19:59;;;;;;;4.95;2.50;;;7.30;99.90;;;;;;4967637;28;20051;-61
2021/12/19 02:22:25;;;;;;;4.53;2.60;;;7.30;99.90;;;;;;4952072;28;20138;-60
2021/12/19 02:24:51;;;;;;;5.95;2.40;;;7.30;99.90;;;;;;4935818;29;20441;-60
2021/12/19 02:27:17;;;;;;;3.75;2.33;;;7.30;99.90;;;;;;4950673;28;20082;-60
2021/12/19 02:29:43;;;;;;;3.53;2.22;;;7.30;99.90;;;;;;4951672;28;20387;-60
2021/12/19 02:32:11;;;;;;;4.15;1.83;;;7.30;99.90;;;;;;4935195;29;20066;-60
2021/12/19 02:34:42;;;;;;;4.85;1.55;;;7.30;99.90;;;;;;4935217;29;20110;-60
2021/12/19 02:37:32;;;;;;;4.75;1.75;;;7.30;99.90;;;;;;4950983;28;20048;-60
2021/12/19 02:48:14;;;;;;;4.70;2.15;;;7.30;99.90;;;;;;4953739;28;20058;-60
2021/12/19 02:50:46;;;;;;;4.25;2.20;;;7.30;99.90;;;;;;4945553;28;20078;-61
2021/12/19 02:53:13;;;;;;;5.22;2.40;;;7.30;99.90;;;;;;4951302;28;20051;-60
2021/12/19 02:55:40;;;;;;;5.13;3.00;;;7.30;99.90;;;;;;4949853;28;20126;-60
2021/12/19 02:58:06;;;;;;;4.10;1.85;;;7.30;99.90;;;;;;4951234;28;20451;-60
2021/12/19 03:00:33;;;;;;;5.47;2.20;;;7.30;99.90;;;;;;4952032;28;20070;-60
2021/12/19 03:02:59;;;;;;;3.08;1.88;;;7.20;99.90;;;;;;4952114;28;20451;-61
2021/12/19 03:05:25;;;;;;;6.82;2.00;;;7.30;99.90;;;;;;4917974;29;20071;-60
2021/12/19 03:07:54;;;;;;;5.72;2.28;;;7.20;99.90;;;;;;4934715;29;20065;-60
2021/12/19 03:18:19;;;;;;;5.10;2.20;;;7.20;99.90;;;;;;4939515;28;20133;-60
2021/12/19 03:20:45;;;;;;;5.18;2.00;;;7.20;99.90;;;;;;4949584;28;20447;-60
2021/12/19 03:23:13;;;;;;;4.03;2.10;;;7.20;99.90;;;;;;4951383;28;20106;-60
2021/12/19 03:25:40;;;;;;;5.68;2.20;;;7.20;99.90;;;;;;4951803;28;20093;-60
2021/12/19 03:28:08;;;;;;;5.45;1.50;;;7.20;99.90;;;;;;4950175;28;21492;-59
2021/12/19 03:30:36;;;;;;;3.28;1.83;;;7.10;99.90;;;;;;4934903;29;20083;-61
2021/12/19 03:33:02;;;;;;;2.63;1.30;;;7.10;99.90;;;;;;4933820;29;20580;-59
2021/12/19 03:35:30;;;;;;;3.38;1.70;;;7.10;99.90;;;;;;4950195;28;20078;-60
2021/12/19 03:37:58;;;;;;;3.85;2.00;;;7.10;99.90;;;;;;4950272;28;20537;-59
2021/12/19 03:40:35;;;;;;;4.35;2.10;;;7.10;99.90;;;;;;4951084;28;20035;-60
2021/12/19 03:43:07;;;;;;;3.97;2.17;;;7.10;99.90;;;;;;4933539;29;20051;-60
2021/12/19 03:45:34;;;;;;;4.03;2.10;;;7.10;99.90;;;;;;4949866;28;20068;-60
2021/12/19 03:48:03;;;;;;;3.75;2.15;;;7.10;99.90;;;;;;4963146;28;20051;-60
2021/12/19 03:50:32;;;;;;;3.88;1.90;;;7.10;99.90;;;;;;4950822;28;20498;-60
2021/12/19 03:53:02;;;;;;;4.72;1.80;;;7.10;99.90;;;;;;4948777;28;20055;-60
2021/12/19 03:55:29;;;;;;;4.13;1.90;;;7.10;99.90;;;;;;4950607;28;20733;-59
2021/12/19 03:57:59;;;;;;;4.03;1.73;;;7.10;99.90;;;;;;4949330;28;20393;-59
2021/12/19 04:00:27;;;;;;;3.38;1.67;;;7.10;99.90;;;;;;4948497;28;20495;-60
2021/12/19 04:02:56;;;;;;;5.13;1.73;;;7.10;99.90;;;;;;4948739;28;20055;-60
2021/12/19 04:05:23;;;;;;;2.85;1.83;;;7.10;99.90;;;;;;4948798;28;20051;-59
2021/12/19 04:07:49;;;;;;;2.58;1.10;;;7.10;99.90;;;;;;4933693;29;20062;-60
2021/12/19 04:10:16;;;;;;;3.63;1.30;;;7.10;99.90;;;;;;4949645;28;20114;-59
2021/12/19 04:12:43;;;;;;;3.55;1.50;;;7.00;99.90;;;;;;4950057;28;20419;-59
2021/12/19 04:15:11;;;;;;;1.77;1.00;;;7.00;99.90;;;;;;4949492;29;20063;-60
2021/12/19 04:17:39;;;;;;;2.42;1.13;;;7.00;99.90;;;;;;4950037;28;20422;-60
2021/12/19 04:20:05;;;;;;;1.98;1.27;;;7.00;99.90;;;;;;4948804;28;20086;-60
2021/12/19 04:22:32;;;;;;;3.33;1.25;;;6.90;99.90;;;;;;4949938;28;20055;-59
2021/12/19 04:24:58;;;;;;;3.70;1.33;;;6.90;99.90;;;;;;4950848;28;20143;-60
2021/12/19 04:27:24;;;;;;;3.08;1.67;;;6.90;99.90;;;;;;4950066;28;20126;-59
2021/12/19 04:29:53;;;;;;;3.70;1.60;;;6.80;99.90;;;;;;4951265;28;20047;-60
2021/12/19 04:32:24;;;;;;;3.95;1.60;;;6.80;99.90;;;;;;4947519;28;20087;-60
2021/12/19 04:34:51;;;;;;;3.88;1.73;;;6.80;99.90;;;;;;4948459;28;20059;-60
2021/12/19 04:40:15;;;;;;;5.25;2.22;;;6.80;99.90;;;;;;4951122;28;20051;-60
2021/12/19 04:51:09;;;;;;;4.40;2.03;;;6.90;99.90;;;;;;4918637;28;20498;-59
2021/12/19 04:58:55;;;;;;;5.97;2.30;;;6.80;99.90;;;;;;4916065;28;20319;-59
2021/12/19 05:04:25;;;;;;;4.95;2.30;;;6.80;99.90;;;;;;4952718;28;20051;-59
2021/12/19 05:14:03;;;;;;;6.40;2.25;;;6.90;99.90;;;;;;4946832;28;20051;-61
2021/12/19 05:15:07;;;;;;;9.20;2.35;;;6.90;99.90;;;;;;4965683;28;20062;-58
2021/12/19 05:17:34;;;;;;;7.35;2.58;;;6.90;99.90;;;;;;4963718;28;20043;-59
2021/12/19 05:20:22;;;;;;;5.85;2.80;;;6.80;99.90;;;;;;4933533;29;20051;-60
2021/12/19 05:22:50;;;;;;;6.07;3.10;;;6.80;99.90;;;;;;4951027;28;20417;-58
2021/12/19 05:25:20;;;;;;;7.78;3.72;;;6.80;99.90;;;;;;4950263;28;20043;-58
2021/12/19 05:27:49;;;;;;;8.95;3.10;;;6.80;99.90;;;;;;4949609;28;20043;-59
2021/12/19 05:30:16;;;;;;;9.23;3.13;;;6.80;99.90;;;;;;4934029;28;20039;-59
2021/12/19 05:32:43;;;;;;;7.60;3.47;;;6.80;99.90;;;;;;4932779;29;20470;-59
2021/12/19 05:35:13;;;;;;;10.40;3.72;;;6.80;99.90;;;;;;4933339;29;20054;-60
2021/12/19 05:45:54;;;;;;;7.97;3.22;;;6.90;99.90;;;;;;4948713;28;20521;-60
2021/12/19 05:48:21;;;;;;;7.40;3.22;;;6.90;99.90;;;;;;4946576;28;20050;-59
2021/12/19 05:50:47;;;;;;;10.73;3.90;;;6.90;99.90;;;;;;4932547;29;20055;-61
2021/12/19 05:53:15;;;;;;;8.30;3.55;;;6.80;99.90;;;;;;4947317;28;20051;-61
2021/12/19 05:55:41;;;;;;;10.18;3.53;;;6.90;99.90;;;;;;4949417;28;20042;-59
2021/12/19 05:58:08;;;;;;;7.53;4.18;;;6.90;99.90;;;;;;4962917;28;20058;-59
2021/12/19 06:00:35;;;;;;;11.80;4.90;;;6.90;99.90;;;;;;4949395;28;20053;-60
2021/12/19 06:03:02;;;;;;;11.77;5.43;;;6.90;99.90;;;;;;4949367;28;20095;-59
2021/12/19 06:05:29;;;;;;;15.10;6.47;;;6.90;99.90;;;;;;4948811;29;20381;-61
2021/12/19 06:07:55;;;;;;;15.25;6.82;;;6.90;99.90;;;;;;4949768;28;20182;-60
2021/12/19 06:10:22;;;;;;;15.52;6.75;;;6.90;99.90;;;;;;4916323;29;20055;-60
2021/12/19 06:12:49;;;;;;;18.00;7.07;;;7.00;99.90;;;;;;4948966;28;20166;-59
2021/12/19 06:15:16;;;;;;;19.63;6.85;;;7.00;99.90;;;;;;4945833;29;20055;-60
2021/12/19 06:17:47;;;;;;;20.20;9.07;;;7.00;99.90;;;;;;4928630;29;20051;-59
2021/12/19 06:20:13;;;;;;;19.70;7.75;;;7.00;99.90;;;;;;4944851;28;20061;-60
2021/12/19 06:22:40;;;;;;;17.08;7.38;;;7.00;99.90;;;;;;4947426;28;20566;-60
2021/12/19 06:25:07;;;;;;;16.23;8.13;;;7.00;99.90;;;;;;4964025;28;20047;-60
2021/12/19 06:27:33;;;;;;;20.50;7.80;;;7.00;99.90;;;;;;4948043;28;20495;-59
2021/12/19 06:29:59;;;;;;;15.93;7.90;;;7.00;99.90;;;;;;4918941;29;20118;-59
2021/12/19 06:32:25;;;;;;;17.00;8.55;;;7.00;99.90;;;;;;4931126;29;20051;-59
2021/12/19 06:34:51;;;;;;;20.58;7.95;;;7.00;99.90;;;;;;4953108;29;20118;-58
2021/12/19 06:37:17;;;;;;;21.80;8.68;;;7.10;99.90;;;;;;4951807;28;20055;-59
2021/12/19 06:39:43;;;;;;;24.75;9.35;;;7.00;99.90;;;;;;4947759;28;20515;-59
2021/12/19 06:42:10;;;;;;;22.05;11.07;;;7.10;99.90;;;;;;4951970;29;20434;-58
2021/12/19 06:44:37;;;;;;;27.35;10.38;;;7.10;99.90;;;;;;4947016;29;20038;-58
2021/12/19 06:47:04;;;;;;;22.52;10.75;;;7.10;99.90;;;;;;4953027;28;20058;-58
2021/12/19 06:49:30;;;;;;;21.23;10.75;;;7.10;99.90;;;;;;4952901;28;20039;-57
2021/12/19 06:51:56;;;;;;;23.60;10.82;;;7.10;99.90;;;;;;4936174;29;20070;-58
2021/12/19 06:54:22;;;;;;;38.55;12.95;;;7.10;99.90;;;;;;4950654;28;20051;-58
2021/12/19 06:56:49;;;;;;;28.35;11.23;;;7.10;99.90;;;;;;4944638;29;20058;-59
2021/12/19 06:59:15;;;;;;;23.27;11.00;;;7.10;99.90;;;;;;4934144;29;20051;-58
2021/12/19 07:01:41;;;;;;;27.35;16.00;;;7.10;99.90;;;;;;4932872;29;20046;-58
2021/12/19 07:04:08;;;;;;;19.58;10.15;;;7.10;99.90;;;;;;4951743;29;20134;-58
2021/12/19 07:06:34;;;;;;;16.95;8.00;;;7.10;99.90;;;;;;4951245;29;20190;-58
2021/12/19 07:09:01;;;;;;;20.20;8.27;;;7.10;99.90;;;;;;4952318;28;20055;-57
2021/12/19 07:11:28;;;;;;;16.73;6.43;;;7.10;99.90;;;;;;4952523;28;20589;-58
2021/12/19 07:13:54;;;;;;;18.08;7.25;;;7.10;99.90;;;;;;4952996;29;20183;-58
2021/12/19 07:16:20;;;;;;;20.10;7.35;;;7.10;99.90;;;;;;4952338;28;20055;-58
2021/12/19 07:18:47;;;;;;;19.38;7.22;;;7.10;99.90;;;;;;4950483;28;20054;-58
2021/12/19 07:21:14;;;;;;;19.63;8.25;;;7.10;99.90;;;;;;4952348;28;20186;-58
2021/12/19 07:23:40;;;;;;;16.55;8.43;;;7.10;99.90;;;;;;4950831;29;20123;-58
2021/12/19 07:26:07;;;;;;;20.75;8.25;;;7.10;99.90;;;;;;4952769;28;20190;-59
2021/12/19 07:28:33;;;;;;;20.60;7.93;;;7.10;99.90;;;;;;4950914;29;20126;-60
2021/12/19 07:30:59;;;;;;;19.30;9.10;;;7.10;99.90;;;;;;4950952;29;20049;-59
2021/12/19 07:33:25;;;;;;;17.73;8.82;;;7.10;99.90;;;;;;4935096;29;20414;-59
2021/12/19 07:35:52;;;;;;;21.95;7.90;;;7.10;99.90;;;;;;4950783;29;20050;-55
2021/12/19 07:38:27;;;;;;;21.77;7.45;;;7.10;99.90;;;;;;4950515;29;20499;-57
2021/12/19 07:40:54;;;;;;;21.73;7.78;;;7.20;99.90;;;;;;4949858;28;20130;-58
2021/12/19 07:43:21;;;;;;;17.60;7.82;;;7.20;99.90;;;;;;4934584;29;20058;-57
2021/12/19 07:45:47;;;;;;;17.85;8.27;;;7.20;99.90;;;;;;4934339;29;20043;-57
2021/12/19 07:48:13;;;;;;;23.92;8.63;;;7.10;99.90;;;;;;4934842;29;20050;-55
2021/12/19 07:50:39;;;;;;;21.10;9.13;;;7.20;99.90;;;;;;4951466;29;20043;-57
2021/12/19 07:53:07;;;;;;;45.15;26.65;;;7.20;99.90;;;;;;4950451;29;20047;-57
2021/12/19 07:55:33;;;;;;;21.05;8.48;;;7.20;99.90;;;;;;4951733;28;20399;-54
2021/12/19 07:57:59;;;;;;;21.50;8.75;;;7.10;99.90;;;;;;4950567;29;20055;-56
2021/12/19 08:00:28;;;;;;;28.33;9.98;;;7.20;99.90;;;;;;4950544;29;20047;-54
2021/12/19 08:02:54;;;;;;;24.48;9.48;;;7.20;99.90;;;;;;4951565;29;20047;-55
2021/12/19 08:05:21;;;;;;;23.27;10.05;;;7.20;99.90;;;;;;4950372;29;20506;-49
2021/12/19 08:07:54;;;;;;;22.67;10.63;;;7.20;99.90;;;;;;4950242;29;20062;-50
2021/12/19 08:12:49;;;;;;;22.17;9.10;;;7.20;99.90;;;;;;4933148;29;20055;-57
2021/12/19 08:15:15;;;;;;;17.30;8.02;;;7.20;99.90;;;;;;4949519;29;20509;-57
2021/12/19 08:17:42;;;;;;;17.70;7.93;;;7.20;99.90;;;;;;4949730;29;20050;-57
2021/12/19 08:20:09;;;;;;;19.70;7.20;;;7.20;99.90;;;;;;4949893;29;20791;-58
2021/12/19 08:22:36;;;;;;;15.93;7.15;;;7.10;99.90;;;;;;4949683;29;20047;-58
2021/12/19 08:25:04;;;;;;;16.98;6.32;;;7.20;99.90;;;;;;4934165;29;20186;-57
2021/12/19 08:27:33;;;;;;;16.70;7.03;;;7.20;99.90;;;;;;4950896;29;20047;-59
2021/12/19 08:29:59;;;;;;;23.02;7.50;;;7.20;99.90;;;;;;4951392;28;20055;-58
2021/12/19 08:32:25;;;;;;;16.02;7.13;;;7.20;99.90;;;;;;4950435;29;20450;-58
2021/12/19 08:34:52;;;;;;;18.80;6.50;;;7.20;99.90;;;;;;4949410;29;20047;-57
2021/12/19 08:37:18;;;;;;;19.45;6.45;;;7.20;99.90;;;;;;4949294;28;20061;-58
2021/12/19 08:39:46;;;;;;;18.00;6.90;;;7.20;99.90;;;;;;4948691;28;20502;-58
2021/12/19 08:42:13;;;;;;;22.42;6.93;;;7.20;99.90;;;;;;4950251;28;20134;-58
2021/12/19 08:44:39;;;;;;;16.40;7.38;;;7.20;99.90;;;;;;4951048;28;20051;-59
2021/12/19 08:47:07;;;;;;;15.25;7.07;;;7.20;99.90;;;;;;4949754;29;20043;-59
2021/12/19 08:49:34;;;;;;;22.25;7.10;;;7.20;99.90;;;;;;4934287;29;20051;-59
2021/12/19 08:52:01;;;;;;;21.00;7.75;;;7.20;99.90;;;;;;4949203;28;20054;-59
2021/12/19 08:54:28;;;;;;;14.27;6.75;;;7.20;99.90;;;;;;4950738;28;20084;-59
2021/12/19 08:56:54;;;;;;;20.50;7.82;;;7.20;99.90;;;;;;4918520;29;20498;-59
2021/12/19 08:59:20;;;;;;;16.10;6.90;;;7.20;99.90;;;;;;4949869;29;20051;-59
2021/12/19 09:01:48;;;;;;;18.20;7.30;;;7.20;99.90;;;;;;4965616;28;20046;-59
2021/12/19 09:04:15;;;;;;;23.30;7.72;;;7.30;99.90;;;;;;4950626;28;20054;-59
2021/12/19 09:06:41;;;;;;;21.05;7.57;;;7.30;99.90;;;;;;4950660;28;20058;-58
2021/12/19 09:09:09;;;;;;;15.95;7.07;;;7.20;99.90;;;;;;4950173;28;20410;-59
2021/12/19 09:11:35;;;;;;;19.55;7.97;;;7.30;99.90;;;;;;4949968;29;20051;-58
2021/12/19 09:14:01;;;;;;;16.23;6.70;;;7.30;99.90;;;;;;4949774;29;20130;-59
2021/12/19 09:16:27;;;;;;;17.63;6.57;;;7.30;99.90;;;;;;4949233;29;20055;-58
2021/12/19 09:18:53;;;;;;;14.43;6.20;;;7.30;99.90;;;;;;4949473;29;20054;-58
2021/12/19 09:21:20;;;;;;;18.13;5.95;;;7.30;99.90;;;;;;4965078;28;20047;-58
2021/12/19 09:23:46;;;;;;;16.65;5.72;;;7.40;99.90;;;;;;4949538;29;20051;-56
2021/12/19 09:26:13;;;;;;;18.05;5.63;;;7.40;99.90;;;;;;4949485;29;20110;-58
2021/12/19 09:28:39;;;;;;;14.00;6.22;;;7.40;99.90;;;;;;4949431;29;20051;-59
2021/12/19 09:31:06;;;;;;;13.68;5.97;;;7.40;99.90;;;;;;4932834;29;20110;-58
2021/12/19 09:33:32;;;;;;;18.05;5.35;;;7.40;99.90;;;;;;4950691;28;20407;-58
2021/12/19 09:35:59;;;;;;;18.30;6.45;;;7.40;99.90;;;;;;4933330;29;20374;-58
2021/12/19 09:38:26;;;;;;;18.98;6.30;;;7.40;99.90;;;;;;4949042;29;20051;-59
2021/12/19 09:41:00;;;;;;;14.60;5.32;;;7.40;99.90;;;;;;4949980;28;20098;-59
2021/12/19 09:43:42;;;;;;;14.00;5.40;;;7.50;99.90;;;;;;4917133;29;20172;-60
2021/12/19 09:46:17;;;;;;;20.05;5.72;;;7.50;99.90;;;;;;4933116;29;20070;-59
2021/12/19 09:48:48;;;;;;;13.50;5.40;;;7.50;99.90;;;;;;4949200;29;20186;-59
2021/12/19 09:51:17;;;;;;;17.17;6.00;;;7.60;99.90;;;;;;4933732;29;20047;-59
2021/12/19 09:53:43;;;;;;;14.82;5.50;;;7.60;99.90;;;;;;4949559;29;20153;-59
2021/12/19 09:56:11;;;;;;;17.02;5.60;;;7.60;99.90;;;;;;4949037;29;20268;-59
2021/12/19 09:58:37;;;;;;;14.10;5.82;;;7.60;99.90;;;;;;4949146;29;20054;-58
2021/12/19 10:01:11;;;;;;;9.25;4.57;;;7.60;99.90;;;;;;4932802;29;20051;-59
2021/12/19 10:03:37;;;;;;;17.40;5.50;;;7.60;99.90;;;;;;4952403;28;20047;-59
2021/12/19 10:06:22;;;;;;;15.80;4.93;;;7.60;99.90;;;;;;4936659;29;20054;-59
2021/12/19 10:09:09;;;;;;;11.45;5.10;;;7.60;99.90;;;;;;4936848;29;20174;-59
2021/12/19 10:14:39;;;;;;;15.43;5.13;;;7.70;99.90;;;;;;4952489;29;20058;-59
2021/12/19 10:17:15;;;;;;;14.13;4.50;;;7.70;99.90;;;;;;4952047;29;20098;-58
2021/12/19 10:20:08;;;;;;;19.63;5.63;;;7.70;99.90;;;;;;4953660;28;20118;-58
2021/12/19 10:22:40;;;;;;;17.75;5.57;;;7.70;99.90;;;;;;4952805;29;20065;-59
2021/12/19 10:25:31;;;;;;;14.38;4.70;;;7.70;99.90;;;;;;4953781;28;20486;-58
2021/12/19 10:28:02;;;;;;;14.13;4.53;;;7.70;99.90;;;;;;4937067;29;20043;-58
2021/12/19 10:30:46;;;;;;;14.95;5.07;;;7.70;99.90;;;;;;4952544;29;20047;-61
2021/12/19 10:33:22;;;;;;;15.10;5.05;;;7.70;99.90;;;;;;4953770;28;20094;-59
2021/12/19 10:35:51;;;;;;;12.90;5.43;;;7.70;99.90;;;;;;4953922;28;20059;-59
2021/12/19 10:38:22;;;;;;;15.68;4.85;;;7.70;99.90;;;;;;4953630;28;20065;-59
2021/12/19 10:40:50;;;;;;;16.48;4.80;;;7.70;99.90;;;;;;4952164;28;20227;-59
2021/12/19 10:43:18;;;;;;;14.70;5.55;;;7.80;99.90;;;;;;4951934;29;20043;-58
2021/12/19 10:45:49;;;;;;;17.13;5.30;;;7.70;99.90;;;;;;4967921;28;20051;-59
2021/12/19 10:48:30;;;;;;;11.18;5.03;;;7.70;99.90;;;;;;4967461;28;20055;-59
2021/12/19 10:51:12;;;;;;;13.07;5.47;;;7.70;99.90;;;;;;4951571;29;20050;-59
2021/12/19 10:53:45;;;;;;;13.70;5.15;;;7.80;99.90;;;;;;4953327;28;20066;-59
2021/12/19 10:56:17;;;;;;;16.10;6.20;;;7.80;99.90;;;;;;4935572;29;20418;-59
2021/12/19 10:58:57;;;;;;;14.48;5.05;;;7.80;99.90;;;;;;4953147;28;20043;-59
2021/12/19 11:01:29;;;;;;;13.63;5.10;;;7.80;99.90;;;;;;4952686;28;20138;-59
2021/12/19 11:04:12;;;;;;;11.73;5.22;;;7.80;99.90;;;;;;4952539;29;20055;-59
2021/12/19 11:06:52;;;;;;;18.45;6.28;;;7.80;99.90;;;;;;4952901;28;20074;-61
2021/12/19 11:09:26;;;;;;;18.58;5.78;;;7.80;99.90;;;;;;4950963;29;20110;-59
2021/12/19 11:11:58;;;;;;;14.68;5.25;;;7.90;99.90;;;;;;4951963;29;20039;-59
2021/12/19 11:14:25;;;;;;;;;;;7.90;99.90;;;;;;4931269;29;20053;-59
2021/12/19 11:16:57;;;;;;;17.77;6.15;;;7.90;99.90;;;;;;4948804;29;19918;-59
2021/12/19 11:19:25;;;;;;;19.10;5.85;;;7.90;99.90;;;;;;4951257;29;20081;-59
2021/12/19 11:21:51;;;;;;;15.85;5.05;;;7.90;99.90;;;;;;4966062;28;20114;-59
2021/12/19 11:24:20;;;;;;;15.98;5.10;;;7.90;99.90;;;;;;4948412;29;20498;-60
2021/12/19 11:26:48;;;;;;;11.23;5.10;;;7.90;99.90;;;;;;4948620;29;20062;-59
2021/12/19 11:29:15;;;;;;;14.25;4.90;;;7.90;99.90;;;;;;4951292;28;20043;-59
2021/12/19 11:31:46;;;;;;;18.42;5.10;;;7.90;99.90;;;;;;4951379;28;20051;-58
2021/12/19 11:34:21;;;;;;;16.27;4.33;;;7.90;99.90;;;;;;4948591;29;20094;-60
2021/12/19 11:37:15;;;;;;;17.27;4.80;;;7.90;99.90;;;;;;4948171;29;20066;-58
2021/12/19 11:39:53;;;;;;;14.23;5.15;;;7.90;99.90;;;;;;4945644;29;20114;-57
2021/12/19 11:42:32;;;;;;;13.90;4.70;;;7.90;99.90;;;;;;4949901;29;20043;-57
2021/12/19 11:47:52;;;;;;;16.42;5.45;;;7.90;99.90;;;;;;4950839;29;20055;-59
2021/12/19 11:50:29;;;;;;;;;;;7.90;99.90;;;;;;4948767;28;20055;-58
2021/12/19 11:53:20;;;;;;;14.65;4.70;;;7.90;99.90;;;;;;4917053;29;19926;-59
2021/12/19 11:55:49;;;;;;;18.40;5.13;;;7.90;99.90;;;;;;4950021;28;20614;-59
2021/12/19 11:58:18;;;;;;;15.32;4.95;;;7.90;99.90;;;;;;4948601;29;20051;-59
2021/12/19 12:00:50;;;;;;;19.45;6.85;;;7.90;99.90;;;;;;4947492;29;20054;-59
2021/12/19 12:03:16;;;;;;;18.77;5.57;;;7.90;99.90;;;;;;4946730;29;20114;-59
2021/12/19 12:05:51;;;;;;;13.27;5.32;;;7.90;99.90;;;;;;4948515;29;20097;-59
2021/12/19 12:08:22;;;;;;;18.92;5.32;;;7.90;99.90;;;;;;4946277;29;20472;-59
2021/12/19 12:10:52;;;;;;;14.50;5.35;;;8.00;99.90;;;;;;4929000;29;20056;-59
2021/12/19 12:13:29;;;;;;;17.85;5.70;;;8.00;99.90;;;;;;4963554;28;20047;-59
2021/12/19 12:16:08;;;;;;;18.92;5.80;;;8.00;99.90;;;;;;4947314;29;20062;-59
2021/12/19 12:18:40;;;;;;;14.23;3.75;;;8.00;99.90;;;;;;4916601;29;20073;-59
2021/12/19 12:21:28;;;;;;;;;;;8.10;99.90;;;;;;4949094;29;20130;-59
2021/12/19 12:23:55;;;;;;;15.85;3.75;;;8.00;99.90;;;;;;4948922;29;20217;-58
2021/12/19 12:26:30;;;;;;;19.90;4.57;;;8.10;99.90;;;;;;4948632;28;20555;-59
2021/12/19 12:28:57;;;;;;;16.08;4.40;;;8.10;99.90;;;;;;4946996;29;20458;-59
2021/12/19 12:31:24;;;;;;;13.93;3.90;;;8.10;99.90;;;;;;4946805;29;20047;-58
2021/12/19 12:33:54;;;;;;;20.27;3.65;;;8.10;99.90;;;;;;4947664;29;20051;-58
2021/12/19 12:36:22;;;;;;;10.02;2.85;;;8.10;99.90;;;;;;4946278;29;20046;-59
2021/12/19 12:38:51;;;;;;;19.90;4.28;;;8.10;99.90;;;;;;4948733;28;20059;-59
2021/12/19 12:44:10;;;;;;;18.52;4.93;;;8.10;99.90;;;;;;4948478;29;20043;-59
2021/12/19 12:46:36;;;;;;;14.25;3.80;;;8.10;99.90;;;;;;4930287;29;20047;-58
2021/12/19 12:49:17;;;;;;;21.20;5.75;;;8.10;99.90;;;;;;4949507;28;20094;-58
2021/12/19 12:51:59;;;;;;;14.80;3.58;;;8.10;99.90;;;;;;4932882;29;20563;-58
2021/12/19 12:54:34;;;;;;;18.15;5.40;;;8.00;99.90;;;;;;4947312;29;20097;-57
2021/12/19 12:57:08;;;;;;;19.35;6.70;;;8.10;99.90;;;;;;4949829;28;20536;-57
2021/12/19 12:59:40;;;;;;;22.00;4.90;;;8.10;99.90;;;;;;4948777;29;20046;-57
2021/12/19 13:04:42;;;;;;;15.57;4.13;;;8.10;99.90;;;;;;4949117;29;20050;-56
2021/12/19 13:07:11;;;;;;;21.90;5.20;;;8.20;99.90;;;;;;4931455;29;20403;-57
2021/12/19 13:09:51;;;;;;;16.42;4.63;;;8.10;99.90;;;;;;4947375;29;20134;-56
2021/12/19 13:12:34;;;;;;;14.20;3.47;;;8.10;99.90;;;;;;4944936;29;20125;-57
2021/12/19 13:15:05;;;;;;;17.27;3.88;;;8.10;99.90;;;;;;4950166;28;20582;-57
2021/12/19 13:17:43;;;;;;;18.33;5.03;;;8.10;99.90;;;;;;4929440;29;20045;-57
2021/12/19 13:20:15;;;;;;;16.20;5.80;;;8.10;99.90;;;;;;4943577;29;20122;-56
2021/12/19 13:22:49;;;;;;;17.15;4.45;;;8.00;99.90;;;;;;4942913;28;20051;-57
2021/12/19 13:25:38;;;;;;;23.75;4.78;;;8.00;99.90;;;;;;4937939;28;20047;-57
2021/12/19 13:28:07;;;;;;;15.13;3.97;;;8.00;99.90;;;;;;4928321;29;20190;-57
2021/12/19 13:30:40;;;;;;;15.70;4.32;;;8.00;99.90;;;;;;4932873;29;20133;-57
2021/12/19 13:33:10;;;;;;;18.15;4.72;;;8.00;99.90;;;;;;4947705;28;20070;-57
2021/12/19 13:35:39;;;;;;;17.13;4.90;;;8.00;99.90;;;;;;4962920;28;20171;-57
2021/12/19 13:38:26;;;;;;;20.17;8.23;;;8.00;99.90;;;;;;4960680;28;20051;-57
2021/12/19 13:40:56;;;;;;;20.88;4.68;;;8.00;99.90;;;;;;4949680;29;20514;-58
2021/12/19 13:43:33;;;;;;;23.75;4.68;;;8.00;99.90;;;;;;4935337;28;20059;-57
2021/12/19 13:46:09;;;;;;;20.45;7.10;;;8.00;99.90;;;;;;4944021;29;20043;-58
2021/12/19 13:48:37;;;;;;;19.65;5.30;;;8.00;99.90;;;;;;4942044;28;20043;-58
2021/12/19 13:51:11;;;;;;;20.00;5.50;;;8.00;99.90;;;;;;4940514;28;20158;-61
2021/12/19 13:53:40;;;;;;;22.05;5.70;;;8.00;99.90;;;;;;4947744;29;20047;-56
2021/12/19 13:56:12;;;;;;;25.65;5.70;;;8.00;99.90;;;;;;4964834;28;20059;-57
2021/12/19 13:58:47;;;;;;;28.20;6.22;;;8.00;99.90;;;;;;4947392;28;20043;-57
2021/12/19 14:01:23;;;;;;;19.73;6.03;;;8.00;99.90;;;;;;4953154;28;20047;-57
2021/12/19 14:03:55;;;;;;;27.88;7.10;;;8.00;99.90;;;;;;4949197;29;20142;-59
2021/12/19 14:06:29;;;;;;;25.63;6.90;;;8.00;99.90;;;;;;4946621;28;20043;-58
2021/12/19 14:08:58;;;;;;;27.33;7.70;;;8.00;99.90;;;;;;4951341;29;20051;-57
2021/12/19 14:11:27;;;;;;;28.50;8.02;;;8.00;99.90;;;;;;4952226;28;20117;-57